Time;durP1;ratioP1;P1;durP2;ratioP2;P2;SDS_P1;SDS_P2;PMS_P1;PMS_P2;Temp;Humidity;BMP_temperature;BMP_pressure;BME280_temperature;BME280_humidity;BME280_pressure;Samples;Min_cycle;Max_cycle;Signal;HPM_P1;HPM_P2
2022/01/26 00:06:44;;;;;;;77.90;29.87;;;;;;;-5.52;59.37;95527.22;5063538;28;20216;-78
2022/01/26 00:09:13;;;;;;;84.90;31.17;;;;;;;-5.53;60.36;95524.78;5064701;28;20198;-77
2022/01/26 00:11:42;;;;;;;65.47;26.97;;;;;;;-5.51;60.91;95528.03;5059194;28;20230;-77
2022/01/26 00:14:13;;;;;;;61.13;23.90;;;;;;;-5.56;60.43;95522.44;5069393;28;20248;-77
2022/01/26 00:16:43;;;;;;;56.43;22.87;;;;;;;-5.56;60.25;95512.31;5070674;28;20197;-78
2022/01/26 00:19:19;;;;;;;57.33;22.20;;;;;;;-5.51;60.19;95502.72;5070268;28;20316;-77
2022/01/26 00:21:51;;;;;;;44.27;18.63;;;;;;;-5.82;59.99;95492.03;5070296;28;20228;-77
2022/01/26 00:27:07;;;;;;;63.00;25.53;;;;;;;-5.76;59.76;95494.19;5072058;28;20279;-85
2022/01/26 00:29:39;;;;;;;67.77;24.97;;;;;;;-5.63;59.61;95506.06;5069584;28;20205;-83
2022/01/26 00:40:43;;;;;;;49.60;21.63;;;;;;;-5.58;59.19;95484.59;5064878;28;20306;-80
2022/01/26 00:43:19;;;;;;;56.07;22.50;;;;;;;-5.45;58.78;95503.13;5051367;28;20780;-80
2022/01/26 00:45:55;;;;;;;59.30;22.17;;;;;;;-5.49;59.63;95501.72;5067380;28;20211;-81
2022/01/26 00:48:26;;;;;;;56.90;23.23;;;;;;;-5.55;60.24;95498.75;5054577;28;20194;-82
2022/01/26 00:50:59;;;;;;;50.20;19.70;;;;;;;-5.55;60.37;95504.66;5068193;28;20201;-80
2022/01/26 00:53:32;;;;;;;42.77;18.67;;;;;;;-5.59;60.40;95503.22;5070767;28;20193;-80
2022/01/26 00:56:01;;;;;;;46.50;20.40;;;;;;;-5.60;60.87;95499.06;5071204;28;20201;-81
2022/01/26 00:58:30;;;;;;;46.17;19.03;;;;;;;-5.63;61.39;95495.94;5067395;28;20205;-81
2022/01/26 01:01:01;;;;;;;39.50;17.23;;;;;;;-5.65;61.68;95500.25;5058578;28;20580;-80
2022/01/26 01:03:31;;;;;;;39.97;15.87;;;;;;;-5.99;61.42;95499.13;5062944;28;20213;-79
2022/01/26 01:06:05;;;;;;;35.63;16.03;;;;;;;-6.06;61.45;95493.63;5056413;28;20197;-82
2022/01/26 01:08:33;;;;;;;37.37;16.40;;;;;;;-6.21;62.66;95487.03;5063844;28;20550;-80
2022/01/26 01:11:00;;;;;;;34.77;16.20;;;;;;;-5.99;63.32;95489.00;5056545;28;20213;-80
2022/01/26 01:13:34;;;;;;;32.17;15.47;;;;;;;-5.86;64.02;95492.38;5055403;28;20278;-79
2022/01/26 01:16:03;;;;;;;35.13;14.93;;;;;;;-5.72;63.87;95486.41;5050610;28;20204;-82
2022/01/26 01:18:40;;;;;;;32.30;14.67;;;;;;;-5.70;63.44;95498.03;5050784;28;20229;-81
2022/01/26 01:24:25;;;;;;;32.90;14.87;;;;;;;-5.61;63.53;95489.03;5044835;28;20584;-81
2022/01/26 01:29:40;;;;;;;34.40;15.70;;;;;;;-5.54;62.96;95488.53;5083073;28;20847;-80
2022/01/26 01:32:14;;;;;;;33.43;15.60;;;;;;;-5.60;63.01;95483.91;5083656;28;20216;-82
2022/01/26 01:34:43;;;;;;;35.07;15.30;;;;;;;-5.60;62.62;95460.28;5071777;28;20272;-81
2022/01/26 01:37:16;;;;;;;35.67;16.90;;;;;;;-5.51;62.86;95474.88;5084238;28;20213;-84
2022/01/26 01:39:44;;;;;;;38.63;17.63;;;;;;;-5.59;62.62;95479.63;5064273;28;20206;-82
2022/01/26 01:42:12;;;;;;;41.57;17.53;;;;;;;-5.56;62.89;95470.09;5082789;28;20709;-83
2022/01/26 01:44:40;;;;;;;42.77;18.20;;;;;;;-5.63;63.07;95476.50;5070253;28;20231;-82
2022/01/26 01:47:19;;;;;;;37.93;16.83;;;;;;;-5.61;63.29;95474.66;5070667;28;20255;-82
2022/01/26 01:49:48;;;;;;;41.90;17.70;;;;;;;-5.61;63.23;95459.47;5051525;28;20220;-82
2022/01/26 01:52:18;;;;;;;42.67;18.43;;;;;;;-5.70;63.84;95470.19;5058834;28;20276;-83
2022/01/26 01:54:51;;;;;;;40.80;17.00;;;;;;;-5.64;64.22;95469.81;5079215;28;20207;-83
2022/01/26 01:57:23;;;;;;;42.83;18.97;;;;;;;-5.57;63.35;95467.69;5090020;28;20201;-82
2022/01/26 01:59:52;;;;;;;45.70;19.33;;;;;;;-5.61;63.57;95444.31;5083342;28;20232;-80
2022/01/26 02:02:22;;;;;;;45.83;19.23;;;;;;;-5.55;64.20;95458.28;5090890;28;20272;-79
2022/01/26 02:04:51;;;;;;;46.27;19.63;;;;;;;-5.53;63.86;95443.78;5080362;28;20206;-80
2022/01/26 02:07:21;;;;;;;46.63;20.63;;;;;;;-5.64;63.97;95438.63;5080246;28;20911;-80
2022/01/26 02:09:50;;;;;;;54.67;20.73;;;;;;;-5.47;63.42;95453.50;5090596;28;20204;-81
2022/01/26 02:12:23;;;;;;;47.60;20.63;;;;;;;-5.51;63.62;95444.50;5086581;28;20651;-80
2022/01/26 02:15:03;;;;;;;48.63;21.90;;;;;;;-5.46;63.13;95445.81;5070719;28;20193;-81
2022/01/26 02:17:51;;;;;;;56.60;22.17;;;;;;;-5.38;63.40;95448.66;5078161;28;20204;-80
2022/01/26 02:51:25;;;;;;;50.07;21.47;;;;;;;-5.18;64.14;95427.03;5091513;28;20207;-80
2022/01/26 02:56:47;;;;;;;44.87;20.17;;;;;;;-5.07;65.71;95442.31;5054211;28;20197;-78
2022/01/26 02:59:38;;;;;;;45.40;20.30;;;;;;;-5.12;65.87;95426.63;5089195;28;20223;-79
2022/01/26 03:02:09;;;;;;;53.90;22.03;;;;;;;-5.06;65.90;95435.53;5074830;28;20241;-78
2022/01/26 03:04:43;;;;;;;47.40;21.57;;;;;;;-5.05;65.81;95442.22;5080545;28;20278;-79
2022/01/26 03:07:18;;;;;;;48.13;22.40;;;;;;;-4.95;66.27;95438.16;5081111;28;20685;-79
2022/01/26 03:09:58;;;;;;;52.70;23.57;;;;;;;-4.97;65.91;95435.72;5064388;28;20204;-78
2022/01/26 03:12:33;;;;;;;58.43;22.87;;;;;;;-4.84;66.16;95448.34;5091623;28;20239;-78
2022/01/26 03:15:10;;;;;;;55.63;22.80;;;;;;;-4.79;66.41;95448.88;5086013;28;20208;-78
2022/01/26 03:17:54;;;;;;;48.07;21.67;;;;;;;-4.80;65.98;95437.91;5072811;28;20204;-78
2022/01/26 03:20:24;;;;;;;39.43;18.60;;;;;;;-4.94;64.54;95437.25;5078531;28;20208;-78
2022/01/26 03:28:38;;;;;;;36.70;17.63;;;;;;;-4.91;63.43;95432.78;5074572;28;20555;-78
2022/01/26 03:31:38;;;;;;;36.57;16.43;;;;;;;-4.81;63.13;95438.81;5087689;28;20197;-78
2022/01/26 03:34:08;;;;;;;44.50;18.07;;;;;;;-4.79;64.74;95439.50;5080301;28;20252;-78
2022/01/26 03:36:45;;;;;;;34.97;16.33;;;;;;;-4.95;64.23;95430.53;5084891;28;20322;-78
2022/01/26 03:39:16;;;;;;;33.50;15.33;;;;;;;-4.84;62.70;95428.88;5090624;28;20208;-79
2022/01/26 03:41:49;;;;;;;29.73;14.20;;;;;;;-4.84;64.10;95417.94;5087666;28;20209;-77
2022/01/26 03:44:18;;;;;;;31.70;15.23;;;;;;;-4.76;63.59;95423.31;5078353;28;20298;-78
2022/01/26 03:46:47;;;;;;;30.67;13.77;;;;;;;-4.76;64.50;95428.38;5065215;28;20201;-78
2022/01/26 03:49:17;;;;;;;33.83;14.83;;;;;;;-4.76;63.66;95429.16;5081867;28;20201;-78
2022/01/26 03:51:46;;;;;;;29.63;14.20;;;;;;;-4.74;62.21;95429.88;5086518;28;20201;-79
2022/01/26 03:54:17;;;;;;;31.00;15.13;;;;;;;-4.78;62.49;95433.53;5084812;28;20198;-79
2022/01/26 03:56:52;;;;;;;29.80;14.87;;;;;;;-4.72;62.43;95430.59;5085374;28;20224;-78
2022/01/26 03:59:22;;;;;;;32.60;14.60;;;;;;;-4.68;62.26;95424.41;5091289;28;20200;-79
2022/01/26 04:01:53;;;;;;;32.73;14.87;;;;;;;-4.63;62.02;95424.06;5092183;28;20288;-79
2022/01/26 04:04:22;;;;;;;39.13;15.83;;;;;;;-4.65;62.51;95418.31;5072202;28;20261;-79
2022/01/26 04:06:50;;;;;;;37.10;15.53;;;;;;;-4.62;62.36;95413.00;5071785;28;20266;-79
2022/01/26 04:09:19;;;;;;;34.53;13.57;;;;;;;-4.54;61.62;95420.88;5089994;28;20197;-79
2022/01/26 04:11:50;;;;;;;31.13;15.00;;;;;;;-4.53;61.51;95419.16;5070325;28;20313;-79
2022/01/26 04:14:23;;;;;;;23.57;11.93;;;;;;;-4.60;61.13;95406.09;5084729;28;20224;-79
2022/01/26 04:16:51;;;;;;;27.93;13.23;;;;;;;-4.59;61.76;95417.88;5086351;28;20201;-79
2022/01/26 04:19:20;;;;;;;33.63;14.60;;;;;;;-4.51;61.88;95412.25;5084917;28;20296;-79
2022/01/26 04:22:02;;;;;;;37.67;15.77;;;;;;;-4.55;62.51;95410.84;5085292;28;20710;-79
2022/01/26 04:24:35;;;;;;;32.40;14.70;;;;;;;-4.48;62.23;95412.03;5089419;28;20258;-78
2022/01/26 04:27:16;;;;;;;31.17;15.30;;;;;;;-4.58;62.19;95396.66;5087161;28;20675;-78
2022/01/26 04:29:46;;;;;;;34.83;13.60;;;;;;;-4.50;62.17;95413.88;5095408;28;20211;-78
2022/01/26 04:32:16;;;;;;;34.03;15.70;;;;;;;-4.55;62.29;95393.09;5091049;28;20225;-79
2022/01/26 04:34:45;;;;;;;27.53;13.80;;;;;;;-4.45;61.13;95402.50;5078641;28;20240;-78
2022/01/26 04:37:26;;;;;;;32.03;14.50;;;;;;;-4.45;62.59;95405.03;5077605;28;20201;-78
2022/01/26 04:39:58;;;;;;;35.53;15.40;;;;;;;-4.35;61.42;95405.97;5071916;28;20201;-79
2022/01/26 04:42:36;;;;;;;36.57;16.50;;;;;;;-4.27;62.03;95416.38;5085675;28;20310;-79
2022/01/26 04:45:08;;;;;;;34.87;16.00;;;;;;;-4.32;62.69;95415.91;5076397;28;20204;-79
2022/01/26 04:47:36;;;;;;;37.00;15.77;;;;;;;-4.26;61.95;95400.25;5082764;28;20668;-79
2022/01/26 04:50:05;;;;;;;31.43;13.93;;;;;;;-4.31;61.50;95393.91;5086621;28;20197;-79
2022/01/26 04:52:34;;;;;;;29.93;13.50;;;;;;;-4.23;61.31;95410.19;5088610;28;20599;-79
2022/01/26 04:55:02;;;;;;;29.07;13.67;;;;;;;-4.26;60.53;95407.88;5089583;28;20606;-79
2022/01/26 04:57:33;;;;;;;32.73;14.33;;;;;;;-4.26;61.29;95405.31;5084697;28;20213;-79
2022/01/26 05:00:00;;;;;;;34.47;15.37;;;;;;;-4.22;60.69;95399.13;5077203;28;20204;-80
2022/01/26 05:02:28;;;;;;;31.73;14.87;;;;;;;-4.25;61.07;95399.34;5080097;28;20202;-80
2022/01/26 05:04:57;;;;;;;36.07;16.33;;;;;;;-4.27;61.49;95401.16;5088184;28;20729;-72
2022/01/26 05:07:24;;;;;;;31.30;14.10;;;;;;;-4.42;62.19;95398.94;5081280;28;20207;-72
2022/01/26 05:09:53;;;;;;;24.47;11.93;;;;;;;-4.52;61.61;95390.34;5064325;28;20201;-72
2022/01/26 05:12:21;;;;;;;28.93;13.17;;;;;;;-4.52;63.29;95413.97;5070610;28;20917;-72
2022/01/26 05:14:50;;;;;;;27.87;13.07;;;;;;;-4.61;63.90;95405.28;5069915;28;20198;-72
2022/01/26 05:17:20;;;;;;;30.23;13.50;;;;;;;-4.52;63.28;95406.38;5068138;28;20205;-71
2022/01/26 05:19:54;;;;;;;29.17;13.33;;;;;;;-4.42;63.56;95409.88;5071480;28;20205;-71
2022/01/26 05:22:22;;;;;;;23.27;12.33;;;;;;;-4.60;63.04;95406.91;5066697;28;20205;-72
2022/01/26 05:24:51;;;;;;;21.60;11.33;;;;;;;-4.59;63.21;95410.25;5067540;28;20210;-72
2022/01/26 05:27:18;;;;;;;30.33;12.03;;;;;;;-4.47;63.10;95406.06;5072123;28;20286;-72
2022/01/26 05:29:46;;;;;;;27.67;14.47;;;;;;;-4.42;62.40;95401.47;5055379;28;20775;-74
2022/01/26 05:32:15;;;;;;;34.07;15.87;;;;;;;-4.33;62.97;95398.28;5067262;28;20205;-72
2022/01/26 05:34:42;;;;;;;27.33;14.10;;;;;;;-4.32;62.43;95398.16;5069180;28;20229;-72
2022/01/26 05:37:09;;;;;;;31.43;14.13;;;;;;;-4.51;63.17;95397.03;5067890;28;20211;-72
2022/01/26 05:39:38;;;;;;;24.50;12.57;;;;;;;-4.51;63.56;95395.31;5071737;28;20213;-72
2022/01/26 05:42:07;;;;;;;31.50;13.83;;;;;;;-4.42;63.44;95394.66;5072824;28;20199;-73
2022/01/26 05:44:36;;;;;;;37.70;16.70;;;;;;;-4.35;63.43;95395.03;5074584;28;20248;-72
2022/01/26 05:47:06;;;;;;;39.70;17.17;;;;;;;-4.34;63.70;95384.78;5071416;28;20220;-72
2022/01/26 05:49:36;;;;;;;29.93;15.17;;;;;;;-4.20;64.61;95392.19;5071020;28;20216;-72
2022/01/26 05:52:05;;;;;;;34.37;16.47;;;;;;;-4.13;64.24;95388.28;5072221;28;20213;-72
2022/01/26 05:54:33;;;;;;;33.10;15.93;;;;;;;-4.08;65.38;95388.78;5073132;28;20780;-72
2022/01/26 05:57:01;;;;;;;44.10;17.63;;;;;;;-4.07;65.08;95392.91;5075040;28;20266;-72
2022/01/26 05:59:32;;;;;;;42.70;19.57;;;;;;;-4.17;66.10;95388.63;5071415;28;20236;-72
2022/01/26 06:02:01;;;;;;;40.20;17.50;;;;;;;-4.39;68.63;95391.91;5071529;28;20201;-72
2022/01/26 06:04:29;;;;;;;38.30;17.50;;;;;;;-4.37;69.51;95389.25;5072008;28;20724;-73
2022/01/26 06:06:58;;;;;;;38.60;17.37;;;;;;;-4.38;68.96;95390.97;5073293;28;20306;-73
2022/01/26 06:09:28;;;;;;;36.63;17.10;;;;;;;-4.27;68.84;95397.84;5073130;28;20628;-73
2022/01/26 06:11:56;;;;;;;37.60;17.53;;;;;;;-4.24;68.57;95398.41;5072265;28;20204;-73
2022/01/26 06:14:24;;;;;;;40.13;17.30;;;;;;;-4.19;68.63;95390.47;5073622;28;20221;-72
2022/01/26 06:16:51;;;;;;;31.97;15.80;;;;;;;-4.22;68.37;95388.97;5072208;28;20271;-72
2022/01/26 06:19:18;;;;;;;37.13;16.33;;;;;;;-4.31;69.05;95389.63;5073256;28;20204;-72
2022/01/26 06:21:47;;;;;;;39.93;17.77;;;;;;;-4.28;69.87;95386.06;5069181;28;20751;-72
2022/01/26 06:24:17;;;;;;;32.63;15.67;;;;;;;-4.26;69.51;95390.09;5072086;28;20228;-73
2022/01/26 06:26:45;;;;;;;41.77;15.87;;;;;;;-4.21;71.15;95387.22;5073732;28;20209;-73
2022/01/26 06:29:12;;;;;;;35.37;16.07;;;;;;;-4.26;72.45;95381.69;5073403;28;20207;-71
2022/01/26 06:31:41;;;;;;;31.83;14.00;;;;;;;-4.13;73.34;95387.50;5075282;28;20274;-72
2022/01/26 06:34:12;;;;;;;35.50;15.40;;;;;;;-4.21;73.64;95387.22;5078938;28;20981;-72
2022/01/26 06:36:43;;;;;;;40.07;15.33;;;;;;;-4.15;73.75;95381.72;5076600;28;20981;-72
2022/01/26 06:39:11;;;;;;;35.83;16.13;;;;;;;-4.11;74.01;95380.59;5073601;28;20705;-72
2022/01/26 06:41:48;;;;;;;43.27;17.47;;;;;;;-4.10;74.17;95377.13;5077603;28;20204;-72
2022/01/26 06:44:20;;;;;;;40.93;18.03;;;;;;;-4.14;75.26;95384.16;5074098;28;20197;-72
2022/01/26 06:46:57;;;;;;;40.40;18.27;;;;;;;-4.11;75.68;95381.41;5075677;28;20684;-72
2022/01/26 06:49:31;;;;;;;34.23;16.37;;;;;;;-3.98;76.29;95385.59;5072651;28;20205;-73
2022/01/26 06:52:00;;;;;;;43.00;19.00;;;;;;;-3.95;76.71;95386.16;5080857;28;20207;-72
2022/01/26 06:54:31;;;;;;;40.53;17.90;;;;;;;-3.98;77.31;95395.72;5091523;28;20239;-72
2022/01/26 06:57:00;;;;;;;44.27;19.07;;;;;;;-3.82;77.05;95403.84;5092614;28;20215;-72
2022/01/26 06:59:28;;;;;;;45.00;20.10;;;;;;;-3.67;76.82;95400.19;5090975;28;20204;-72
2022/01/26 07:01:58;;;;;;;42.37;18.30;;;;;;;-3.64;77.13;95405.03;5091476;28;20212;-72
2022/01/26 07:04:28;;;;;;;39.47;19.67;;;;;;;-3.61;77.52;95399.72;5091416;28;20219;-71
2022/01/26 07:06:58;;;;;;;44.23;20.03;;;;;;;-3.59;77.89;95397.88;5091776;28;20207;-72
2022/01/26 07:09:26;;;;;;;45.57;18.97;;;;;;;-3.46;77.28;95403.63;5091688;28;20196;-72
2022/01/26 07:11:55;;;;;;;54.57;21.00;;;;;;;-3.37;78.16;95395.34;5091058;28;20339;-71
2022/01/26 07:19:45;;;;;;;41.97;19.67;;;;;;;-3.36;78.50;95389.34;5090973;28;20725;-74
2022/01/26 07:20:29;;;;;;;43.30;17.70;;;;;;;-3.29;79.73;95394.78;5084928;28;20193;-77
2022/01/26 07:22:44;;;;;;;56.67;21.93;;;;;;;-3.28;79.41;95387.03;5078789;28;20204;-76
2022/01/26 07:25:12;;;;;;;43.87;18.73;;;;;;;-3.30;80.21;95380.44;5087815;28;20442;-76
2022/01/26 07:27:39;;;;;;;46.13;18.80;;;;;;;-3.26;80.30;95392.78;5090269;28;20209;-75
2022/01/26 07:30:11;;;;;;;45.27;17.43;;;;;;;-3.22;80.22;95390.81;5084838;28;20209;-75
2022/01/26 07:32:38;;;;;;;41.13;17.53;;;;;;;-3.17;79.13;95399.72;5089575;28;20212;-77
2022/01/26 07:35:07;;;;;;;33.10;14.90;;;;;;;-3.46;79.54;95373.97;5090510;28;20230;-77
2022/01/26 07:37:35;;;;;;;34.10;15.23;;;;;;;-3.41;79.81;95406.66;5090478;28;20193;-76
2022/01/26 07:40:06;;;;;;;36.03;14.33;;;;;;;-3.42;81.08;95399.97;5090514;28;20208;-76
2022/01/26 07:42:35;;;;;;;30.47;13.87;;;;;;;-3.42;81.83;95404.22;5090758;28;20272;-76
2022/01/26 07:45:06;;;;;;;34.10;14.43;;;;;;;-3.51;81.91;95386.22;5079575;28;20205;-78
2022/01/26 07:47:37;;;;;;;31.00;14.53;;;;;;;-3.40;83.87;95394.75;5088746;28;20204;-74
2022/01/26 07:50:09;;;;;;;38.80;16.07;;;;;;;-3.45;86.23;95395.09;5079357;28;20193;-75
2022/01/26 07:52:39;;;;;;;34.27;15.70;;;;;;;-3.40;85.88;95392.22;5077483;28;20205;-77
2022/01/26 07:55:08;;;;;;;33.70;15.10;;;;;;;-3.37;86.19;95391.97;5078610;28;20228;-76
2022/01/26 07:57:36;;;;;;;30.90;14.77;;;;;;;-3.48;86.07;95370.75;5074721;28;20292;-76
2022/01/26 08:00:06;;;;;;;29.90;14.40;;;;;;;-3.24;86.63;95395.22;5076556;28;20201;-76
2022/01/26 08:02:37;;;;;;;32.17;14.50;;;;;;;-3.30;87.34;95386.34;5075984;28;20258;-77
2022/01/26 08:05:06;;;;;;;34.00;14.20;;;;;;;-3.34;88.83;95392.56;5073179;28;20201;-77
2022/01/26 08:07:35;;;;;;;34.47;16.10;;;;;;;-3.38;89.67;95385.31;5072979;28;20219;-76
2022/01/26 08:10:03;;;;;;;43.17;19.33;;;;;;;-3.28;90.98;95394.66;5075706;28;20695;-78
2022/01/26 08:12:31;;;;;;;39.33;17.77;;;;;;;-3.24;90.70;95387.59;5074971;28;20205;-78
2022/01/26 08:14:58;;;;;;;38.20;16.03;;;;;;;-3.23;90.20;95397.63;5077335;28;20243;-75
2022/01/26 08:17:28;;;;;;;37.30;16.30;;;;;;;-3.23;90.14;95389.22;5072909;28;20403;-76
2022/01/26 08:19:57;;;;;;;38.33;16.67;;;;;;;-3.24;91.09;95398.59;5074192;28;20634;-76
2022/01/26 08:22:26;;;;;;;36.17;16.37;;;;;;;-3.23;91.54;95387.47;5073675;28;20705;-76
2022/01/26 08:24:54;;;;;;;44.50;17.90;;;;;;;-3.11;91.43;95390.81;5075938;28;20275;-75
2022/01/26 08:27:27;;;;;;;40.83;17.37;;;;;;;-3.05;91.03;95387.81;5075020;28;20209;-76
2022/01/26 08:30:04;;;;;;;34.17;15.90;;;;;;;-2.97;90.60;95393.09;5074208;28;20664;-76
2022/01/26 08:32:31;;;;;;;35.43;15.33;;;;;;;-3.03;91.02;95393.59;5075309;28;20293;-76
2022/01/26 08:35:01;;;;;;;36.47;15.93;;;;;;;-3.05;91.72;95387.81;5076473;28;20608;-76
2022/01/26 08:37:29;;;;;;;44.47;16.07;;;;;;;-3.07;92.20;95392.22;5077239;28;20605;-80
2022/01/26 08:40:01;;;;;;;37.63;16.10;;;;;;;-3.03;92.22;95404.56;5074416;28;20247;-85
2022/01/26 08:42:32;;;;;;;37.20;16.63;;;;;;;-2.94;92.65;95403.03;5079098;28;20261;-77
2022/01/26 08:45:00;;;;;;;33.07;15.10;;;;;;;-2.87;91.92;95405.00;5079449;28;20265;-76
2022/01/26 08:47:28;;;;;;;39.00;16.87;;;;;;;-2.80;92.48;95410.44;5079122;28;20204;-77
2022/01/26 08:49:57;;;;;;;34.37;15.57;;;;;;;-2.80;91.80;95410.44;5078022;28;20262;-78
2022/01/26 08:52:26;;;;;;;28.40;14.27;;;;;;;-2.79;92.08;95409.50;5073162;28;20293;-78
2022/01/26 08:54:59;;;;;;;33.50;14.70;;;;;;;-2.67;91.35;95406.00;5072433;28;20236;-86
2022/01/26 08:57:28;;;;;;;32.07;16.03;;;;;;;-2.59;92.19;95410.50;5078553;28;20272;-79
2022/01/26 09:00:00;;;;;;;35.73;16.77;;;;;;;-2.54;91.43;95414.28;5075353;28;20235;-78
2022/01/26 09:02:29;;;;;;;35.07;17.63;;;;;;;-2.48;90.91;95408.72;5071235;28;20661;-78
2022/01/26 09:04:58;;;;;;;30.20;14.20;;;;;;;-2.38;90.30;95411.38;5073109;28;20211;-78
2022/01/26 09:07:28;;;;;;;27.23;13.10;;;;;;;-2.49;90.53;95407.13;5069400;28;20267;-77
2022/01/26 09:10:06;;;;;;;26.77;13.53;;;;;;;-2.35;90.01;95408.59;5071634;28;20212;-77
2022/01/26 09:12:37;;;;;;;24.07;11.27;;;;;;;-2.42;90.11;95418.41;5074066;28;20208;-78
2022/01/26 09:15:07;;;;;;;28.90;12.27;;;;;;;-2.45;90.16;95413.56;5070736;28;20220;-77
2022/01/26 09:17:36;;;;;;;23.67;12.50;;;;;;;-2.58;91.24;95412.13;5071798;28;20201;-77
2022/01/26 09:20:06;;;;;;;27.00;12.90;;;;;;;-2.48;90.84;95408.72;5072005;28;20263;-78
2022/01/26 09:22:46;;;;;;;35.10;15.63;;;;;;;-2.46;91.16;95426.44;5066148;28;20313;-79
2022/01/26 09:25:15;;;;;;;33.67;16.13;;;;;;;-2.45;91.73;95420.41;5065568;28;20284;-77
2022/01/26 09:27:42;;;;;;;31.47;15.27;;;;;;;-2.37;90.74;95423.16;5071930;28;20216;-77
2022/01/26 09:30:11;;;;;;;29.97;15.57;;;;;;;-2.47;90.61;95395.09;5073183;28;20263;-78
2022/01/26 09:32:39;;;;;;;30.20;14.70;;;;;;;-2.31;91.03;95415.06;5072079;28;20205;-78
2022/01/26 09:35:08;;;;;;;24.50;13.10;;;;;;;-2.14;89.24;95413.72;5073204;28;20257;-77
2022/01/26 09:37:38;;;;;;;31.73;16.10;;;;;;;-2.06;88.71;95406.25;5068366;28;20263;-77
2022/01/26 09:40:09;;;;;;;44.27;20.17;;;;;;;-2.00;89.00;95405.78;5070220;28;20193;-76
2022/01/26 09:42:38;;;;;;;42.47;19.20;;;;;;;-1.88;87.84;95408.16;5073490;28;20698;-77
2022/01/26 09:45:07;;;;;;;40.23;17.37;;;;;;;-1.91;86.55;95377.84;5072603;28;20235;-78
2022/01/26 09:47:37;;;;;;;40.23;17.80;;;;;;;-1.84;87.42;95396.78;5075307;28;20646;-78
2022/01/26 09:50:08;;;;;;;31.67;17.27;;;;;;;-1.79;88.15;95402.28;5069326;28;20205;-78
2022/01/26 09:52:49;;;;;;;36.30;16.83;;;;;;;-2.30;88.14;95317.41;5068871;28;20255;-77
2022/01/26 09:55:17;;;;;;;35.37;15.80;;;;;;;-2.02;88.06;95360.06;5066093;28;20315;-78
2022/01/26 09:57:46;;;;;;;26.83;14.53;;;;;;;-1.89;87.30;95370.06;5071960;28;20212;-78
2022/01/26 10:00:16;;;;;;;32.80;16.90;;;;;;;-1.63;87.04;95385.75;5068486;28;20252;-78
2022/01/26 10:02:47;;;;;;;34.03;15.83;;;;;;;-1.62;87.04;95382.28;5074787;28;20251;-77
2022/01/26 10:05:17;;;;;;;32.77;15.17;;;;;;;-1.64;87.29;95381.59;5073044;28;20281;-76
2022/01/26 10:08:10;;;;;;;32.17;14.60;;;;;;;-1.74;87.22;95381.56;5071167;28;20228;-77
2022/01/26 10:19:06;;;;;;;32.10;13.97;;;;;;;-1.61;89.27;95381.34;5071160;28;20259;-79
2022/01/26 10:21:35;;;;;;;26.87;14.20;;;;;;;-1.65;88.68;95380.00;5068207;28;20692;-78
2022/01/26 10:24:12;;;;;;;30.27;12.87;;;;;;;-1.58;88.45;95374.25;5073624;28;20245;-77
2022/01/26 10:26:43;;;;;;;27.83;13.60;;;;;;;-1.54;88.35;95383.28;5069581;28;20207;-77
2022/01/26 10:29:11;;;;;;;24.77;12.67;;;;;;;-1.65;89.87;95377.44;5073783;28;20209;-78
2022/01/26 10:31:40;;;;;;;27.87;13.70;;;;;;;-1.61;91.05;95371.16;5071594;28;20310;-77
2022/01/26 10:34:10;;;;;;;32.30;15.20;;;;;;;-1.66;92.70;95379.19;5068063;28;20233;-77
2022/01/26 10:36:40;;;;;;;24.57;12.70;;;;;;;-1.69;93.87;95369.25;5069544;28;20207;-77
2022/01/26 10:39:11;;;;;;;27.10;13.50;;;;;;;-1.71;94.92;95376.22;5072629;28;20578;-77
2022/01/26 10:41:47;;;;;;;30.07;14.73;;;;;;;-1.66;94.91;95369.00;5069706;28;20201;-77
2022/01/26 10:44:16;;;;;;;24.20;12.97;;;;;;;-1.63;95.12;95368.75;5068468;28;20189;-77
2022/01/26 10:46:46;;;;;;;27.20;14.03;;;;;;;-1.65;96.29;95372.34;5068080;28;20189;-73
2022/01/26 10:49:19;;;;;;;21.90;10.67;;;;;;;-1.49;95.14;95375.25;5069038;28;20205;-78
2022/01/26 10:52:02;;;;;;;26.37;12.43;;;;;;;-1.59;95.75;95367.56;5065629;28;20198;-77
2022/01/26 10:54:37;;;;;;;28.33;13.70;;;;;;;-1.55;96.77;95373.19;5054781;28;20213;-77
2022/01/26 10:57:07;;;;;;;22.53;11.20;;;;;;;-1.62;96.69;95367.81;5069521;28;20556;-79
2022/01/26 10:59:36;;;;;;;26.50;13.47;;;;;;;-1.70;97.72;95362.53;5066153;28;20197;-79
2022/01/26 11:02:05;;;;;;;33.73;15.37;;;;;;;-1.63;98.22;95358.56;5072339;28;20678;-78
2022/01/26 11:04:34;;;;;;;33.60;16.50;;;;;;;-1.64;96.62;95356.94;5069787;28;20228;-79
2022/01/26 11:07:03;;;;;;;31.67;14.87;;;;;;;-1.78;96.42;95363.16;5071879;28;20216;-79
2022/01/26 11:09:40;;;;;;;33.13;15.27;;;;;;;-1.83;98.49;95354.28;5069714;28;20209;-79
2022/01/26 11:12:09;;;;;;;30.77;16.00;;;;;;;-1.83;100.00;95354.28;5070610;28;20410;-77
2022/01/26 11:14:42;;;;;;;25.40;13.10;;;;;;;-1.66;100.00;95353.72;5071591;28;20225;-78
2022/01/26 11:17:10;;;;;;;29.90;14.80;;;;;;;-1.62;100.00;95359.38;5073172;28;20300;-78
2022/01/26 11:19:42;;;;;;;30.03;15.13;;;;;;;-1.66;100.00;95350.34;5076527;28;20393;-77
2022/01/26 11:22:12;;;;;;;27.07;11.70;;;;;;;-1.61;99.94;95340.56;5070548;28;20247;-78
2022/01/26 11:24:47;;;;;;;23.67;11.80;;;;;;;-1.55;100.00;95342.63;5072103;28;20723;-78
2022/01/26 11:27:17;;;;;;;23.10;12.60;;;;;;;-1.46;98.71;95345.22;5075458;28;20201;-77
2022/01/26 11:29:49;;;;;;;21.63;11.43;;;;;;;-1.41;98.64;95347.38;5077097;28;20212;-77
2022/01/26 11:32:22;;;;;;;24.90;13.00;;;;;;;-1.48;98.48;95338.66;5076087;28;20588;-78
2022/01/26 11:34:53;;;;;;;24.07;12.80;;;;;;;-1.50;100.00;95343.84;5075043;28;20232;-77
2022/01/26 11:37:36;;;;;;;26.20;14.10;;;;;;;-1.33;100.00;95345.00;5072119;28;20213;-77
2022/01/26 11:45:36;;;;;;;24.10;13.70;;;;;;;-1.37;99.17;95324.06;5075337;28;20205;-77
2022/01/26 11:48:08;;;;;;;24.87;13.57;;;;;;;-1.30;99.91;95335.34;5073876;28;20711;-79
2022/01/26 11:50:37;;;;;;;25.07;13.07;;;;;;;-1.18;99.66;95325.84;5075153;28;20208;-79
2022/01/26 11:53:06;;;;;;;24.47;13.03;;;;;;;-1.18;98.40;95348.81;5075363;28;20812;-77
2022/01/26 11:55:47;;;;;;;24.07;12.20;;;;;;;-1.38;100.00;95331.81;5076254;28;20649;-78
2022/01/26 11:58:19;;;;;;;31.27;14.60;;;;;;;-1.50;100.00;95315.03;5073066;28;20694;-76
2022/01/26 12:00:55;;;;;;;32.73;15.53;;;;;;;-1.46;100.00;95327.38;5070259;28;20205;-78
2022/01/26 12:03:26;;;;;;;27.73;13.70;;;;;;;-1.32;100.00;95329.56;5074551;28;20216;-79
2022/01/26 12:05:56;;;;;;;22.33;12.23;;;;;;;-1.30;100.00;95332.78;5072702;28;20220;-78
2022/01/26 12:08:36;;;;;;;35.03;17.53;;;;;;;-1.48;100.00;95334.34;5074267;28;20201;-78
2022/01/26 12:11:08;;;;;;;30.33;15.43;;;;;;;-1.59;100.00;95331.91;5073231;28;20612;-79
2022/01/26 12:13:37;;;;;;;30.20;16.47;;;;;;;-1.54;100.00;95329.78;5072527;28;20201;-77
2022/01/26 12:16:12;;;;;;;32.27;16.53;;;;;;;-1.40;100.00;95337.06;5072051;28;20651;-77
2022/01/26 12:18:46;;;;;;;31.10;15.33;;;;;;;-1.45;100.00;95338.38;5075655;28;20200;-78
2022/01/26 12:33:02;;;;;;;34.43;16.53;;;;;;;-1.49;100.00;95325.09;5073317;28;20266;-75
2022/01/26 12:35:41;;;;;;;30.83;15.03;;;;;;;-1.65;100.00;95301.84;5071988;28;20225;-75
2022/01/26 12:38:16;;;;;;;36.23;18.10;;;;;;;-1.53;100.00;95310.19;5071914;28;20201;-77
2022/01/26 12:43:38;;;;;;;38.60;18.40;;;;;;;-1.35;100.00;95311.19;5071118;28;20208;-77
2022/01/26 12:46:07;;;;;;;33.83;18.53;;;;;;;-1.50;100.00;95317.59;5068176;28;20591;-75
2022/01/26 12:48:38;;;;;;;36.17;16.40;;;;;;;-1.59;100.00;95301.34;5074497;28;20263;-76
2022/01/26 12:51:06;;;;;;;32.73;17.33;;;;;;;-1.53;100.00;95305.09;5070752;28;20201;-76
2022/01/26 12:53:35;;;;;;;35.13;17.97;;;;;;;-1.35;100.00;95304.34;5074384;28;20197;-76
2022/01/26 12:56:05;;;;;;;39.00;17.63;;;;;;;-1.25;100.00;95309.47;5069899;28;20247;-76
2022/01/26 12:58:37;;;;;;;32.07;16.17;;;;;;;-1.37;100.00;95306.22;5072881;28;20293;-75
2022/01/26 13:01:07;;;;;;;32.97;17.17;;;;;;;-1.53;100.00;95302.56;5074389;28;20580;-76
2022/01/26 13:03:36;;;;;;;31.47;17.60;;;;;;;-1.58;100.00;95299.56;5071272;28;20212;-75
2022/01/26 13:06:13;;;;;;;35.10;17.60;;;;;;;-1.47;100.00;95297.72;5072485;28;20202;-76
2022/01/26 13:08:42;;;;;;;29.13;15.50;;;;;;;-1.39;100.00;95300.47;5072470;28;20201;-77